KBGD/BGD METAR and TAF weather

Enter ICAO airport designator
Station Type Date Time Source
KBGD METAR 2022/05/24 12:18 UTC NOAA

KBGD 241218Z AUTO 01007KT 10SM OVC003 12/11 A2985 RMK AO2 T01170106


Station Type Date Time Source
KBGD Decoded METAR 2022/05/24 12:18 UTC NOAA

BORGER HUTCHINSON CO AIRPORT , TX, United States (KBGD) 35-42N 101-24W 927M
May 24, 2022 - 08:18 AM EDT / 2022.05.24 1218 UTC
Wind: from the N (010 degrees) at 8 MPH (7 KT):0
Visibility: 10 mile(s):0
Sky conditions: overcast
Temperature: 53.1 F (11.7 C)
Dew Point: 51.1 F (10.6 C)
Relative Humidity: 92%
Pressure (altimeter): 29.85 in. Hg (1010 hPa)
ob: KBGD 241218Z AUTO 01007KT 10SM OVC003 12/11 A2985 RMK AO2 T01170106
cycle: 12

Station Type Date Time Source
KBGD TAF UTC NOAA

Error!

Example: see airport list